Seabourn Pride — C6FR5 — position and weather

sailwx.info

Track history (hours):
 
Tides and Currents Weather Stations Pressure Air Temp Water Temp Dewpoint Dewpoint Depression Visibility Wind Speed Wind Dir Waves Ship Positions

Seabourn Pride

Operator: Cunard Seabourn

Last reported at 2018-Oct-12 00:44 UTC. Time now 2018-Oct-20 02:58 UTC.
Position N 45°48' W 073°20'.
Warning: this ship's position is 8 days out of date.

Length 134 m; draft 5.7 m.

Type: Passenger vessel. MMSI: 311084000.

Date/timePositionNaut miles runAvg speedWind from/ knotsBaromVisibWave heightAir tempDewpointWater temp
2018-Oct-12 00:44N 45°48' W 073°20'2 0.1
2018-Oct-11 07:19N 45°46' W 073°23'310.3
2018-Oct-11 07:03N 45°48' W 073°20'110.5
2018-Oct-11 07:00N 45°48' W 073°19'810.3
2018-Oct-11 06:15N 45°55' W 073°13'311.0
2018-Oct-11 06:00N 45°58' W 073°12'  
2018-Oct-02 03:11N 43°55' W 068°47'1 7.0
2018-Oct-02 03:01N 43°55' W 068°48'1 6.9
2018-Oct-02 02:55N 43°55' W 068°49'3 6.9
2018-Oct-02 02:30N 43°56' W 068°53'4 6.9
2018-Oct-02 01:59N 43°58' W 068°57'3 7.0
2018-Oct-02 01:29N 44°01' W 068°60'3 7.3
2018-Oct-02 01:02N 44°04' W 069°01'0 7.7
2018-Oct-02 01:00N 44°05' W 069°01'  
Track history (hours):
 
Tides and Currents Weather Stations Pressure Air Temp Water Temp Dewpoint Dewpoint Depression Visibility Wind Speed Wind Dir Waves Ship Positions

Seabourn Pride

Operator: Cunard Seabourn

Last reported at 2018-Oct-12 00:44 UTC. Time now 2018-Oct-20 02:58 UTC.
Position N 45°48' W 073°20'.
Warning: this ship's position is 8 days out of date.

Length 134 m; draft 5.7 m.

Type: Passenger vessel. MMSI: 311084000.

Date/timePositionNaut miles runAvg speedWind from/ knotsBaromVisibWave heightAir tempDewpointWater temp
2018-Oct-12 00:44N 45°48' W 073°20'2 0.1
2018-Oct-11 07:19N 45°46' W 073°23'310.3
2018-Oct-11 07:03N 45°48' W 073°20'110.5
2018-Oct-11 07:00N 45°48' W 073°19'810.3
2018-Oct-11 06:15N 45°55' W 073°13'311.0
2018-Oct-11 06:00N 45°58' W 073°12'  
2018-Oct-02 03:11N 43°55' W 068°47'1 7.0
2018-Oct-02 03:01N 43°55' W 068°48'1 6.9
2018-Oct-02 02:55N 43°55' W 068°49'3 6.9
2018-Oct-02 02:30N 43°56' W 068°53'4 6.9
2018-Oct-02 01:59N 43°58' W 068°57'3 7.0
2018-Oct-02 01:29N 44°01' W 068°60'3 7.3
2018-Oct-02 01:02N 44°04' W 069°01'0 7.7
2018-Oct-02 01:00N 44°05' W 069°01'  

Dump ship's entire track history